createdAt,value
2023-02-15T00:00:02.585Z,128.25
2023-02-15T00:02:29.203Z,131.05
2023-02-15T00:04:56.994Z,130.85
2023-02-15T00:07:23.685Z,129.30
2023-02-15T00:09:50.503Z,127.03
2023-02-15T00:12:17.636Z,129.90
2023-02-15T00:14:44.623Z,130.50
2023-02-15T00:17:11.528Z,120.72
2023-02-15T00:19:38.214Z,122.05
2023-02-15T00:22:04.838Z,119.32
2023-02-15T00:24:31.475Z,131.18
2023-02-15T00:26:59.401Z,119.95
2023-02-15T00:29:26.200Z,128.52
2023-02-15T00:31:53.432Z,129.77
2023-02-15T00:34:23.204Z,126.38
2023-02-15T00:36:50.510Z,127.18
2023-02-15T00:39:18.209Z,129.23
2023-02-15T00:41:45.562Z,135.52
2023-02-15T00:44:12.785Z,128.35
2023-02-15T00:46:39.740Z,134.40
2023-02-15T00:49:06.751Z,123.65
2023-02-15T00:51:33.909Z,136.10
2023-02-15T00:54:00.570Z,124.10
2023-02-15T00:56:29.385Z,127.55
2023-02-15T00:58:56.224Z,134.57
2023-02-15T01:01:23.261Z,123.38
2023-02-15T01:03:50.486Z,128.05
2023-02-15T01:06:18.318Z,126.97
2023-02-15T01:08:46.933Z,119.60
2023-02-15T01:11:22.664Z,123.90
2023-02-15T01:13:55.159Z,135.77
2023-02-15T01:16:22.988Z,126.00
2023-02-15T01:18:50.095Z,128.40
2023-02-15T01:21:20.466Z,122.88
2023-02-15T01:23:47.423Z,121.55
2023-02-15T01:26:14.907Z,125.65
2023-02-15T01:28:41.818Z,123.53
2023-02-15T01:31:10.823Z,128.13
2023-02-15T01:33:38.065Z,122.07
2023-02-15T01:36:05.492Z,117.80
2023-02-15T01:38:32.670Z,117.68
2023-02-15T01:41:19.285Z,123.85
2023-02-15T01:43:49.450Z,123.28
2023-02-15T01:46:18.656Z,129.90
2023-02-15T01:48:48.820Z,123.88
2023-02-15T01:51:20.272Z,124.53
2023-02-15T01:53:57.731Z,122.15
2023-02-15T01:56:27.735Z,125.45
2023-02-15T01:58:56.584Z,120.25
2023-02-15T02:01:25.879Z,127.07
2023-02-15T02:04:16.295Z,129.68
2023-02-15T02:06:42.998Z,127.20
2023-02-15T02:09:10.991Z,125.53
2023-02-15T02:11:39.925Z,130.45
2023-02-15T02:14:06.684Z,124.20
2023-02-15T02:16:59.580Z,126.43
2023-02-15T02:19:53.949Z,120.82
2023-02-15T02:22:48.486Z,117.10
2023-02-15T02:25:44.401Z,127.38
2023-02-15T02:28:13.852Z,124.22
2023-02-15T02:31:07.872Z,126.15
2023-02-15T02:33:48.276Z,122.43
2023-02-15T02:36:26.039Z,125.53
2023-02-15T02:39:11.065Z,127.43
2023-02-15T02:42:03.597Z,135.02
2023-02-15T02:44:45.425Z,125.50
2023-02-15T02:47:30.856Z,125.68
2023-02-15T02:50:07.139Z,125.03
2023-02-15T02:52:40.847Z,122.85
2023-02-15T02:55:36.801Z,123.45
2023-02-15T02:58:34.625Z,126.07
2023-02-15T03:01:09.930Z,127.43
2023-02-15T03:03:44.832Z,130.85
2023-02-15T03:06:19.256Z,124.65
2023-02-15T03:08:55.555Z,123.35
2023-02-15T03:11:22.316Z,128.00
2023-02-15T03:13:49.987Z,121.15
2023-02-15T03:16:28.130Z,121.80
2023-02-15T03:19:09.329Z,128.02
2023-02-15T03:21:50.453Z,135.57
2023-02-15T03:24:22.548Z,121.32
2023-02-15T03:26:52.640Z,125.55
2023-02-15T03:29:22.739Z,122.32
2023-02-15T03:31:55.094Z,122.35
2023-02-15T03:34:22.045Z,126.22
2023-02-15T03:37:07.296Z,128.60
2023-02-15T03:39:53.529Z,128.95
2023-02-15T03:42:31.854Z,124.00
2023-02-15T03:45:10.853Z,130.45
2023-02-15T03:47:41.197Z,131.55
2023-02-15T03:50:35.521Z,129.02
2023-02-15T03:53:04.820Z,126.65
2023-02-15T03:55:31.941Z,131.40
2023-02-15T03:58:17.248Z,133.98
2023-02-15T04:01:11.315Z,133.75
2023-02-15T04:03:45.664Z,135.85
2023-02-15T04:06:12.342Z,129.38
2023-02-15T04:08:57.733Z,133.40
2023-02-15T04:11:24.363Z,129.30
2023-02-15T04:13:57.223Z,126.97
2023-02-15T04:16:25.045Z,128.55
2023-02-15T04:19:10.562Z,130.43
2023-02-15T04:21:55.897Z,149.43
2023-02-15T04:24:41.228Z,137.82
2023-02-15T04:27:07.912Z,131.52
2023-02-15T04:29:34.608Z,131.10
2023-02-15T04:32:02.530Z,133.85
2023-02-15T04:34:29.246Z,146.35
2023-02-15T04:36:55.883Z,146.45
2023-02-15T04:39:22.510Z,136.40
2023-02-15T04:41:49.146Z,131.00
2023-02-15T04:44:16.136Z,130.32
2023-02-15T04:46:42.782Z,126.40
2023-02-15T04:49:09.990Z,123.88
2023-02-15T04:51:36.610Z,122.38
2023-02-15T04:54:03.362Z,136.32
2023-02-15T04:56:31.006Z,135.23
2023-02-15T04:58:57.864Z,126.00
2023-02-15T05:01:24.578Z,141.95
2023-02-15T05:03:51.261Z,132.02
2023-02-15T05:06:18.054Z,138.43
2023-02-15T05:08:44.649Z,135.63
2023-02-15T05:11:11.423Z,130.82
2023-02-15T05:13:38.090Z,149.98
2023-02-15T05:16:04.944Z,144.57
2023-02-15T05:18:31.614Z,143.93
2023-02-15T05:20:58.264Z,130.98
2023-02-15T05:23:24.915Z,139.20
2023-02-15T05:26:11.440Z,125.57
2023-02-15T05:28:39.692Z,135.77
2023-02-15T05:31:15.667Z,126.78
2023-02-15T05:33:43.374Z,130.82
2023-02-15T05:36:10.372Z,126.90
2023-02-15T05:38:40.672Z,126.57
2023-02-15T05:41:08.694Z,132.55
2023-02-15T05:43:35.704Z,126.18
2023-02-15T05:46:03.453Z,129.48
2023-02-15T05:48:30.980Z,140.10
2023-02-15T05:51:02.457Z,121.15
2023-02-15T05:53:31.175Z,132.05
2023-02-15T05:56:00.634Z,124.68
2023-02-15T05:58:28.303Z,126.70
2023-02-15T06:00:55.942Z,123.57
2023-02-15T06:03:23.977Z,130.65
2023-02-15T06:05:50.659Z,121.30
2023-02-15T06:08:17.523Z,119.80
2023-02-15T06:10:44.176Z,113.85
2023-02-15T06:13:10.809Z,123.93
2023-02-15T06:15:37.478Z,125.90
2023-02-15T06:18:04.525Z,127.03
2023-02-15T06:20:31.245Z,125.00
2023-02-15T06:22:57.872Z,124.20
2023-02-15T06:25:25.489Z,121.80
2023-02-15T06:27:52.182Z,120.88
2023-02-15T06:30:19.015Z,119.28
2023-02-15T06:32:45.704Z,118.90
2023-02-15T06:35:12.543Z,127.43
2023-02-15T06:37:40.069Z,126.68
2023-02-15T06:40:07.764Z,114.38
2023-02-15T06:42:34.385Z,111.90
2023-02-15T06:45:01.515Z,115.95
2023-02-15T06:47:28.156Z,116.35
2023-02-15T06:49:54.808Z,122.55
2023-02-15T06:52:21.442Z,116.95
2023-02-15T06:54:48.062Z,120.65
2023-02-15T06:57:14.802Z,121.45
2023-02-15T06:59:41.468Z,122.32
2023-02-15T07:02:10.254Z,119.45
2023-02-15T07:04:36.950Z,115.22
2023-02-15T07:07:04.017Z,116.32
2023-02-15T07:09:30.655Z,113.85
2023-02-15T07:12:15.873Z,115.10
2023-02-15T07:14:42.531Z,112.65
2023-02-15T07:17:18.237Z,119.35
2023-02-15T07:19:56.105Z,111.80
2023-02-15T07:22:22.885Z,114.20
2023-02-15T07:24:50.093Z,113.53
2023-02-15T07:27:16.911Z,111.35
2023-02-15T07:29:43.515Z,119.30
2023-02-15T07:32:10.191Z,116.18
2023-02-15T07:34:36.876Z,118.70
2023-02-15T07:37:03.501Z,120.53
2023-02-15T07:39:30.137Z,117.57
2023-02-15T07:41:56.780Z,112.22
2023-02-15T07:44:23.496Z,116.15
2023-02-15T07:46:50.153Z,117.18
2023-02-15T07:49:16.785Z,112.45
2023-02-15T07:51:43.432Z,114.38
2023-02-15T07:54:10.060Z,116.43
2023-02-15T07:56:37.192Z,118.20
2023-02-15T07:59:04.100Z,124.13
2023-02-15T08:01:33.660Z,115.40
2023-02-15T08:04:00.503Z,119.50
2023-02-15T08:06:29.628Z,118.68
2023-02-15T08:08:56.599Z,120.05
2023-02-15T08:11:34.947Z,115.95
2023-02-15T08:14:21.380Z,119.93
2023-02-15T08:16:56.757Z,123.60
2023-02-15T08:19:24.919Z,114.95
2023-02-15T08:21:54.402Z,116.13
2023-02-15T08:24:22.691Z,119.50
2023-02-15T08:26:50.585Z,117.93
2023-02-15T08:29:26.045Z,113.97
2023-02-15T08:32:03.000Z,117.70
2023-02-15T08:34:32.010Z,113.40
2023-02-15T08:36:58.705Z,114.45
2023-02-15T08:39:25.394Z,111.97
2023-02-15T08:41:52.047Z,114.70
2023-02-15T08:44:20.017Z,115.03
2023-02-15T08:46:47.892Z,122.28
2023-02-15T08:49:18.831Z,117.68
2023-02-15T08:51:45.859Z,118.20
2023-02-15T08:54:19.436Z,121.40
2023-02-15T08:56:46.467Z,112.75
2023-02-15T08:59:22.561Z,112.85
2023-02-15T09:01:51.028Z,119.75
2023-02-15T09:04:18.351Z,118.90
2023-02-15T09:06:48.794Z,110.78
2023-02-15T09:09:16.843Z,111.38
2023-02-15T09:11:45.797Z,114.60
2023-02-15T09:14:14.969Z,117.95
2023-02-15T09:16:47.140Z,117.05
2023-02-15T09:19:14.148Z,115.10
2023-02-15T09:21:41.109Z,115.32
2023-02-15T09:24:13.491Z,123.15
2023-02-15T09:26:42.950Z,116.13
2023-02-15T09:29:10.719Z,113.68
2023-02-15T09:31:49.855Z,120.30
2023-02-15T09:34:19.911Z,120.15
2023-02-15T09:36:47.681Z,114.18
2023-02-15T09:39:25.687Z,120.72
2023-02-15T09:42:42.897Z,119.38
2023-02-15T09:45:34.799Z,129.20
2023-02-15T09:48:37.506Z,126.38
2023-02-15T09:51:20.228Z,136.88
2023-02-15T09:54:30.307Z,124.63
2023-02-15T09:57:01.679Z,128.25
2023-02-15T10:00:02.538Z,128.40
2023-02-15T10:03:01.623Z,132.23
2023-02-15T10:06:11.834Z,133.82
2023-02-15T10:08:41.230Z,135.57
2023-02-15T10:11:38.626Z,137.43
2023-02-15T10:14:16.258Z,143.18
2023-02-15T10:17:32.781Z,140.48
2023-02-15T10:20:12.872Z,140.45
2023-02-15T10:22:58.150Z,135.35
2023-02-15T10:25:35.662Z,143.45
2023-02-15T10:28:20.199Z,135.20
2023-02-15T10:30:52.351Z,135.00
2023-02-15T10:33:21.704Z,135.30
2023-02-15T10:36:14.550Z,126.45
2023-02-15T10:38:48.364Z,135.65
2023-02-15T10:41:47.161Z,132.05
2023-02-15T10:44:41.488Z,136.45
2023-02-15T10:47:39.254Z,131.65
2023-02-15T10:50:27.475Z,129.32
2023-02-15T10:52:55.623Z,121.38
2023-02-15T10:55:40.065Z,128.88
2023-02-15T10:58:31.790Z,128.30
2023-02-15T11:01:11.684Z,133.50
2023-02-15T11:04:17.511Z,129.90
2023-02-15T11:06:52.215Z,129.90
2023-02-15T11:09:21.632Z,125.18
2023-02-15T11:11:56.529Z,127.80
2023-02-15T11:14:24.179Z,127.05
2023-02-15T11:16:56.400Z,125.60
2023-02-15T11:19:29.529Z,123.13
2023-02-15T11:22:01.603Z,127.28
2023-02-15T11:24:31.627Z,130.82
2023-02-15T11:27:04.271Z,130.32
2023-02-15T11:29:53.057Z,129.63
2023-02-15T11:32:39.626Z,130.30
2023-02-15T11:35:12.410Z,129.45
2023-02-15T11:37:47.042Z,131.15
2023-02-15T11:40:25.641Z,122.50
2023-02-15T11:42:56.219Z,124.57
2023-02-15T11:45:23.309Z,128.10
2023-02-15T11:47:50.069Z,130.52
2023-02-15T11:50:23.324Z,141.23
2023-02-15T11:52:52.872Z,130.40
2023-02-15T11:55:23.566Z,139.13
2023-02-15T11:58:02.731Z,129.73
2023-02-15T12:00:40.454Z,139.40
2023-02-15T12:03:24.274Z,134.15
2023-02-15T12:05:57.255Z,132.63
2023-02-15T12:08:24.752Z,139.45
2023-02-15T12:11:05.086Z,142.50
2023-02-15T12:13:31.712Z,137.43
2023-02-15T12:16:00.190Z,139.55
2023-02-15T12:18:40.002Z,143.95
2023-02-15T12:21:14.311Z,143.13
2023-02-15T12:23:49.273Z,142.27
2023-02-15T12:26:24.226Z,140.88
2023-02-15T12:28:53.249Z,138.32
2023-02-15T12:31:42.746Z,135.52
2023-02-15T12:34:47.427Z,148.02
2023-02-15T12:37:22.031Z,131.95
2023-02-15T12:39:57.436Z,148.80
2023-02-15T12:42:25.655Z,154.88
2023-02-15T12:44:59.930Z,149.57
2023-02-15T12:47:30.692Z,153.82
2023-02-15T12:50:17.880Z,144.50
2023-02-15T12:52:49.679Z,155.02
2023-02-15T12:55:30.395Z,142.07
2023-02-15T12:58:27.669Z,147.70
2023-02-15T13:01:13.107Z,157.20
2023-02-15T13:04:02.226Z,142.27
2023-02-15T13:06:31.958Z,151.77
2023-02-15T13:09:26.427Z,155.77
2023-02-15T13:11:53.945Z,149.18
2023-02-15T13:14:32.704Z,144.82
2023-02-15T13:17:03.828Z,151.32
2023-02-15T13:19:35.980Z,150.00
2023-02-15T13:22:07.507Z,148.98
2023-02-15T13:24:41.790Z,151.15
2023-02-15T13:27:18.746Z,150.40
2023-02-15T13:29:51.735Z,150.02
2023-02-15T13:32:29.830Z,145.48
2023-02-15T13:34:59.442Z,161.68
2023-02-15T13:37:35.147Z,158.23
2023-02-15T13:40:15.527Z,164.68
2023-02-15T13:42:47.121Z,154.82
2023-02-15T13:45:38.972Z,163.10
2023-02-15T13:48:36.914Z,160.68
2023-02-15T13:51:11.547Z,159.57
2023-02-15T13:53:57.888Z,169.00
2023-02-15T13:57:02.002Z,166.57
2023-02-15T14:00:15.404Z,168.23
2023-02-15T14:03:00.504Z,158.25
2023-02-15T14:05:49.475Z,154.43
2023-02-15T14:08:30.606Z,146.93
2023-02-15T14:11:28.398Z,149.23
2023-02-15T14:14:41.899Z,156.80
2023-02-15T14:17:26.670Z,162.30
2023-02-15T14:20:03.648Z,158.57
2023-02-15T14:22:33.067Z,157.32
2023-02-15T14:25:21.438Z,154.05
2023-02-15T14:28:05.944Z,162.52
2023-02-15T14:30:46.689Z,161.00
2023-02-15T14:33:37.031Z,156.52
2023-02-15T14:36:07.400Z,151.00
2023-02-15T14:39:06.619Z,147.23
2023-02-15T14:41:50.691Z,151.27
2023-02-15T14:44:30.349Z,156.13
2023-02-15T14:47:18.548Z,151.15
2023-02-15T14:49:45.190Z,162.30
2023-02-15T14:52:12.809Z,155.45
2023-02-15T14:54:39.392Z,161.07
2023-02-15T14:57:07.342Z,151.38
2023-02-15T14:59:58.347Z,152.68
2023-02-15T15:02:41.686Z,158.68
2023-02-15T15:05:15.298Z,156.95
2023-02-15T15:07:51.510Z,171.32
2023-02-15T15:10:18.168Z,152.40
2023-02-15T15:12:55.757Z,153.35
2023-02-15T15:15:28.473Z,158.38
2023-02-15T15:18:09.054Z,141.98
2023-02-15T15:20:40.534Z,154.65
2023-02-15T15:23:40.917Z,153.95
2023-02-15T15:26:29.101Z,153.32
2023-02-15T15:28:58.625Z,153.82
2023-02-15T15:31:35.465Z,152.43
2023-02-15T15:34:24.591Z,154.35
2023-02-15T15:37:19.653Z,147.45
2023-02-15T15:40:07.788Z,145.40
2023-02-15T15:42:51.960Z,142.82
2023-02-15T15:45:56.109Z,149.50
2023-02-15T15:48:38.945Z,145.15
2023-02-15T15:51:31.901Z,152.80
2023-02-15T15:53:58.828Z,148.60
2023-02-15T15:56:32.065Z,152.57
2023-02-15T15:59:06.531Z,153.60
2023-02-15T16:01:48.069Z,156.43
2023-02-15T16:04:26.382Z,147.98
2023-02-15T16:06:53.301Z,145.90
2023-02-15T16:09:25.735Z,145.65
2023-02-15T16:12:01.353Z,142.63
2023-02-15T16:14:33.189Z,147.60
2023-02-15T16:17:03.123Z,145.18
2023-02-15T16:19:36.546Z,145.90
2023-02-15T16:22:04.756Z,151.80
2023-02-15T16:25:02.437Z,150.82
2023-02-15T16:27:36.550Z,141.30
2023-02-15T16:30:33.444Z,173.82
2023-02-15T16:33:07.725Z,147.23
2023-02-15T16:35:35.855Z,141.00
2023-02-15T16:38:03.327Z,149.95
2023-02-15T16:40:49.261Z,145.25
2023-02-15T16:43:24.712Z,141.65
2023-02-15T16:45:52.094Z,141.30
2023-02-15T16:48:24.489Z,143.02
2023-02-15T16:51:01.200Z,152.20
2023-02-15T16:53:30.078Z,141.45
2023-02-15T16:56:05.949Z,143.65
2023-02-15T16:58:46.960Z,154.52
2023-02-15T17:01:15.675Z,142.23
2023-02-15T17:03:43.235Z,147.50
2023-02-15T17:06:39.472Z,166.52
2023-02-15T17:09:19.323Z,151.45
2023-02-15T17:11:46.032Z,152.63
2023-02-15T17:14:18.898Z,150.40
2023-02-15T17:16:50.594Z,153.13
2023-02-15T17:19:25.294Z,144.57
2023-02-15T17:21:55.704Z,150.55
2023-02-15T17:24:40.033Z,150.52
2023-02-15T17:27:13.972Z,156.77
2023-02-15T17:29:45.450Z,148.98
2023-02-15T17:32:30.917Z,158.70
2023-02-15T17:34:58.607Z,159.00
2023-02-15T17:37:29.291Z,159.98
2023-02-15T17:39:57.326Z,145.95
2023-02-15T17:42:23.982Z,158.18
2023-02-15T17:44:50.766Z,159.35
2023-02-15T17:47:20.668Z,155.65
2023-02-15T17:49:50.002Z,155.48
2023-02-15T17:52:18.277Z,159.95
2023-02-15T17:55:03.941Z,165.95
2023-02-15T17:57:31.441Z,155.30
2023-02-15T18:00:16.738Z,160.38
2023-02-15T18:03:02.556Z,156.55
2023-02-15T18:05:47.936Z,147.55
2023-02-15T18:08:34.395Z,158.90
2023-02-15T18:11:20.527Z,163.18
2023-02-15T18:13:47.410Z,162.90
2023-02-15T18:16:22.591Z,155.00
2023-02-15T18:18:49.813Z,151.13
2023-02-15T18:21:16.596Z,165.77
2023-02-15T18:23:43.340Z,158.43
2023-02-15T18:26:17.455Z,161.57
2023-02-15T18:28:44.097Z,167.30
2023-02-15T18:31:11.852Z,149.85
2023-02-15T18:33:50.548Z,146.02
2023-02-15T18:36:23.144Z,155.63
2023-02-15T18:38:50.277Z,149.35
2023-02-15T18:41:19.409Z,140.02
2023-02-15T18:43:48.824Z,147.48
2023-02-15T18:46:16.971Z,155.68
2023-02-15T18:48:44.449Z,152.45
2023-02-15T18:51:29.322Z,142.65
2023-02-15T18:54:02.543Z,149.93
2023-02-15T18:56:30.823Z,152.63
2023-02-15T18:58:57.429Z,152.52
2023-02-15T19:01:24.214Z,157.57
2023-02-15T19:03:51.882Z,152.75
2023-02-15T19:06:21.673Z,160.27
2023-02-15T19:08:50.721Z,154.73
2023-02-15T19:11:20.297Z,161.10
2023-02-15T19:13:48.776Z,160.52
2023-02-15T19:16:31.474Z,165.35
2023-02-15T19:18:58.782Z,152.55
2023-02-15T19:21:27.134Z,158.00
2023-02-15T19:23:58.024Z,166.88
2023-02-15T19:26:36.307Z,159.93
2023-02-15T19:29:13.918Z,159.57
2023-02-15T19:31:41.105Z,154.70
2023-02-15T19:34:16.661Z,164.27
2023-02-15T19:36:46.489Z,168.57
2023-02-15T19:39:40.210Z,154.05
2023-02-15T19:42:11.744Z,161.25
2023-02-15T19:44:43.433Z,166.65
2023-02-15T19:47:12.945Z,159.20
2023-02-15T19:49:39.881Z,155.63
2023-02-15T19:52:13.617Z,166.93
2023-02-15T19:54:40.275Z,161.45
2023-02-15T19:57:10.587Z,169.30
2023-02-15T19:59:37.286Z,161.80
2023-02-15T20:02:04.985Z,154.80
2023-02-15T20:04:31.645Z,147.13
2023-02-15T20:07:01.351Z,161.80
2023-02-15T20:09:33.786Z,169.02
2023-02-15T20:12:01.071Z,155.60
2023-02-15T20:14:27.718Z,163.75
2023-02-15T20:16:54.345Z,161.57
2023-02-15T20:19:21.016Z,170.73
2023-02-15T20:21:52.041Z,178.90
2023-02-15T20:24:21.168Z,170.90
2023-02-15T20:26:47.827Z,163.00
2023-02-15T20:29:16.366Z,169.15
2023-02-15T20:31:43.261Z,170.13
2023-02-15T20:34:10.289Z,177.27
2023-02-15T20:36:38.075Z,164.63
2023-02-15T20:39:15.472Z,161.05
2023-02-15T20:41:47.661Z,168.65
2023-02-15T20:44:17.327Z,176.50
2023-02-15T20:46:44.072Z,173.73
2023-02-15T20:49:10.790Z,181.77
2023-02-15T20:51:37.789Z,178.57
2023-02-15T20:54:16.161Z,175.45
2023-02-15T20:56:43.311Z,175.82
2023-02-15T20:59:19.938Z,169.98
2023-02-15T21:01:47.544Z,170.27
2023-02-15T21:04:23.674Z,169.18
2023-02-15T21:06:50.355Z,173.02
2023-02-15T21:09:17.007Z,173.48
2023-02-15T21:11:44.827Z,165.80
2023-02-15T21:14:20.207Z,162.52
2023-02-15T21:16:48.055Z,176.32
2023-02-15T21:19:21.201Z,166.65
2023-02-15T21:21:50.772Z,178.85
2023-02-15T21:24:20.695Z,197.07
2023-02-15T21:26:48.271Z,174.30
2023-02-15T21:29:23.303Z,185.93
2023-02-15T21:31:50.068Z,187.90
2023-02-15T21:34:19.961Z,172.30
2023-02-15T21:36:48.381Z,182.93
2023-02-15T21:39:26.507Z,175.57
2023-02-15T21:42:13.769Z,172.10
2023-02-15T21:44:59.112Z,165.07
2023-02-15T21:47:47.528Z,183.02
2023-02-15T21:50:37.151Z,173.88
2023-02-15T21:53:05.585Z,176.15
2023-02-15T21:55:32.847Z,176.00
2023-02-15T21:58:00.493Z,177.10
2023-02-15T22:00:28.553Z,172.05
2023-02-15T22:02:58.160Z,173.70
2023-02-15T22:05:32.114Z,170.80
2023-02-15T22:07:58.991Z,187.75
2023-02-15T22:10:30.223Z,155.43
2023-02-15T22:12:57.240Z,183.38
2023-02-15T22:15:26.270Z,169.57
2023-02-15T22:17:53.502Z,174.57
2023-02-15T22:20:24.016Z,168.93
2023-02-15T22:22:51.822Z,176.18
2023-02-15T22:25:21.912Z,167.20
2023-02-15T22:27:50.344Z,179.55
2023-02-15T22:30:20.095Z,170.75
2023-02-15T22:32:47.020Z,191.20
2023-02-15T22:35:24.080Z,172.10
2023-02-15T22:37:50.741Z,174.35
2023-02-15T22:40:18.691Z,199.80
2023-02-15T22:42:47.464Z,185.00
2023-02-15T22:45:19.197Z,187.93
2023-02-15T22:47:48.331Z,170.07
2023-02-15T22:50:25.296Z,173.18
2023-02-15T22:52:52.512Z,175.60
2023-02-15T22:55:23.276Z,169.85
2023-02-15T22:57:53.251Z,164.02
2023-02-15T23:00:26.376Z,176.27
2023-02-15T23:02:54.610Z,161.07
2023-02-15T23:05:30.905Z,186.65
2023-02-15T23:07:57.987Z,168.32
2023-02-15T23:10:26.486Z,169.75
2023-02-15T23:13:17.147Z,182.38
2023-02-15T23:15:50.766Z,178.95
2023-02-15T23:18:22.989Z,176.63
2023-02-15T23:21:01.847Z,184.80
2023-02-15T23:23:38.121Z,181.48
2023-02-15T23:26:10.664Z,166.70
2023-02-15T23:28:38.416Z,174.90
2023-02-15T23:31:24.892Z,169.90
2023-02-15T23:33:53.079Z,173.38
2023-02-15T23:36:35.439Z,163.48
2023-02-15T23:39:53.398Z,176.73
2023-02-15T23:42:24.590Z,160.60
2023-02-15T23:44:51.683Z,166.15
2023-02-15T23:47:50.549Z,158.13
2023-02-15T23:50:23.053Z,141.98
2023-02-15T23:52:50.970Z,146.75
2023-02-15T23:55:18.137Z,141.07
2023-02-15T23:57:45.383Z,138.70
